Time;durP1;ratioP1;P1;durP2;ratioP2;P2;SDS_P1;SDS_P2;PMS_P1;PMS_P2;Temp;Humidity;BMP_temperature;BMP_pressure;BME280_temperature;BME280_humidity;BME280_pressure;Samples;Min_cycle;Max_cycle;Signal;HPM_P1;HPM_P2
2022/02/07 00:03:11;;;;;;;1999.90;999.90;;;;;;;6.00;76.65;99011.94;15614992;28;20129;-55
2022/02/07 00:10:45;;;;;;;1999.90;999.90;;;;;;;5.83;76.36;99029.50;15643504;22;20049;-62
2022/02/07 00:18:19;;;;;;;1999.90;999.90;;;;;;;5.70;73.89;99052.75;15663468;28;20720;-64
2022/02/07 00:25:51;;;;;;;1999.90;999.90;;;;;;;6.05;71.71;99065.13;15652512;28;20041;-62
2022/02/07 00:33:24;;;;;;;1999.90;999.90;;;;;;;5.83;71.20;99072.97;15652796;28;20037;-62
2022/02/07 00:41:15;;;;;;;1999.90;999.90;;;;;;;5.63;71.27;99094.03;15635262;28;20452;-62
2022/02/07 00:48:48;;;;;;;1999.90;999.90;;;;;;;5.44;71.46;99122.16;15637526;28;20088;-64
2022/02/07 00:56:20;;;;;;;1999.90;999.90;;;;;;;5.30;71.49;99130.72;15678779;28;20072;-63
2022/02/07 01:03:54;;;;;;;1999.90;999.90;;;;;;;5.33;71.93;99143.91;15637653;28;20045;-62
2022/02/07 01:11:45;;;;;;;1999.90;999.90;;;;;;;5.16;70.86;99157.81;15620174;28;20049;-63
2022/02/07 01:51:03;;;;;;;1999.90;999.90;;;;;;;5.21;70.76;99235.06;15621729;28;20144;-60
2022/02/07 01:58:35;;;;;;;1999.90;999.90;;;;;;;5.04;71.07;99252.53;15625722;28;20511;-62
2022/02/07 02:06:11;;;;;;;1999.90;999.90;;;;;;;5.04;71.02;99276.63;15633818;28;20048;-61
2022/02/07 02:14:18;;;;;;;1999.90;999.90;;;;;;;4.86;70.60;99300.72;15608737;28;20409;-62
2022/02/07 02:37:55;;;;;;;1999.90;999.90;;;;;;;5.29;69.52;99374.44;15636083;28;20049;-61
2022/02/07 02:45:32;;;;;;;1999.90;999.90;;;;;;;5.03;70.93;99396.63;15632175;28;20057;-61
2022/02/07 02:53:11;;;;;;;1999.90;999.90;;;;;;;5.22;70.05;99430.28;15648627;28;20041;-62
2022/02/07 03:00:46;;;;;;;1999.90;999.90;;;;;;;5.13;69.86;99448.81;15647673;28;20094;-62
2022/02/07 03:08:31;;;;;;;1999.90;999.90;;;;;;;5.15;69.19;99475.00;15661853;28;20455;-61
2022/02/07 03:23:51;;;;;;;1999.90;999.90;;;;;;;5.08;70.08;99516.16;15652989;28;19921;-61
2022/02/07 03:31:23;;;;;;;1999.90;999.90;;;;;;;4.91;70.91;99541.03;15661017;28;20107;-63
2022/02/07 03:39:02;;;;;;;1999.90;999.90;;;;;;;5.27;70.43;99557.31;15640891;28;20045;-63
2022/02/07 03:46:37;;;;;;;1999.90;999.90;;;;;;;5.09;70.96;99575.03;15630313;28;20075;-63
2022/02/07 03:54:11;;;;;;;1999.90;999.90;;;;;;;5.17;70.13;99608.22;15618139;28;20045;-63
2022/02/07 04:01:44;;;;;;;1999.90;999.90;;;;;;;5.13;69.80;99626.63;15645029;28;20485;-62
2022/02/07 04:09:25;;;;;;;1999.90;999.90;;;;;;;4.74;70.75;99657.88;15631426;28;20158;-60
2022/02/07 04:16:57;;;;;;;1999.90;999.90;;;;;;;5.09;69.63;99677.34;15627958;28;20037;-63
2022/02/07 04:24:40;;;;;;;1999.90;999.90;;;;;;;5.07;70.93;99702.53;15589917;28;20524;-63
2022/02/07 04:32:19;;;;;;;1999.90;999.90;;;;;;;4.75;71.85;99708.44;15641545;28;20398;-63
2022/02/07 04:39:54;;;;;;;1999.90;999.90;;;;;;;4.88;72.14;99744.25;15626694;28;20091;-62
2022/02/07 04:47:47;;;;;;;1999.90;999.90;;;;;;;4.85;71.81;99771.75;15645135;28;20049;-63
2022/02/07 04:55:32;;;;;;;1999.90;999.90;;;;;;;4.67;72.72;99779.13;15636084;28;20569;-61
2022/02/07 05:03:12;;;;;;;1999.90;999.90;;;;;;;4.96;71.92;99817.31;15614068;28;20099;-63
2022/02/07 05:18:48;;;;;;;1999.90;999.90;;;;;;;5.10;70.87;99861.47;15635723;28;20049;-63
2022/02/07 05:26:44;;;;;;;1999.90;999.90;;;;;;;4.86;72.54;99886.69;15591074;28;20068;-63
2022/02/07 05:34:26;;;;;;;1999.90;999.90;;;;;;;4.67;73.05;99895.19;15628786;28;20063;-62
2022/02/07 05:42:23;;;;;;;1999.90;999.90;;;;;;;5.10;72.64;99925.88;15675429;28;20102;-62
2022/02/07 05:50:07;;;;;;;1999.90;999.90;;;;;;;5.06;71.56;99946.19;15655712;28;20413;-62
2022/02/07 05:58:02;;;;;;;1999.90;999.90;;;;;;;5.11;72.35;99970.97;15636940;28;20577;-62
2022/02/07 06:05:44;;;;;;;1999.90;999.90;;;;;;;5.10;71.15;99999.72;15629190;28;20391;-63
2022/02/07 06:13:25;;;;;;;1999.90;999.90;;;;;;;5.30;70.80;100018.59;15606662;28;20038;-62
2022/02/07 06:21:05;;;;;;;1999.90;999.90;;;;;;;5.29;70.73;100038.28;15645375;28;20057;-63
2022/02/07 06:28:41;;;;;;;1999.90;999.90;;;;;;;5.35;70.24;100068.28;15609208;28;20043;-62
2022/02/07 06:36:15;;;;;;;1999.90;999.90;;;;;;;5.24;70.53;100079.91;15648317;28;20041;-62
2022/02/07 06:43:48;;;;;;;1999.90;999.90;;;;;;;5.57;70.30;100095.13;15636283;28;20041;-62
2022/02/07 06:51:21;;;;;;;1999.90;999.90;;;;;;;5.56;69.91;100114.81;15587011;28;20065;-61
2022/02/07 06:58:59;;;;;;;1999.90;999.90;;;;;;;5.37;70.90;100121.34;15601619;28;20033;-62
2022/02/07 07:06:35;;;;;;;1999.90;999.90;;;;;;;5.64;69.32;100139.81;15602524;28;20049;-63
2022/02/07 07:14:17;;;;;;;1999.90;999.90;;;;;;;5.67;69.30;100161.31;15601277;28;20128;-63
2022/02/07 07:21:51;;;;;;;1999.90;999.90;;;;;;;5.72;69.60;100179.72;15656035;28;20045;-63
2022/02/07 07:29:29;;;;;;;1999.90;999.90;;;;;;;5.70;69.43;100204.97;15669285;28;20037;-63
2022/02/07 07:37:02;;;;;;;1999.90;999.90;;;;;;;5.81;69.31;100230.47;15646441;28;20048;-63
2022/02/07 07:44:38;;;;;;;1999.90;999.90;;;;;;;5.80;69.52;100245.44;15708881;28;20036;-63
2022/02/07 07:52:19;;;;;;;1999.90;999.90;;;;;;;6.03;68.98;100271.22;15728951;28;20395;-63
2022/02/07 08:08:10;;;;;;;1999.90;999.90;;;;;;;6.64;66.37;100280.78;15688046;28;20504;-62
2022/02/07 08:15:46;;;;;;;1999.90;999.90;;;;;;;6.75;66.57;100296.03;15655166;28;20049;-62
2022/02/07 08:23:18;;;;;;;;;;;;;;;6.62;67.01;100319.13;15672013;28;20460;-63
2022/02/07 08:30:52;;;;;;;1999.90;999.90;;;;;;;6.20;68.45;100337.06;15687899;28;19931;-65
2022/02/07 08:38:24;;;;;;;1999.90;999.90;;;;;;;6.29;67.99;100365.66;15650976;28;20049;-63
2022/02/07 08:45:57;;;;;;;1999.90;999.90;;;;;;;6.40;68.43;100388.41;15655627;28;20063;-62
2022/02/07 08:53:35;;;;;;;1999.90;999.90;;;;;;;6.89;66.43;100404.94;15679007;28;20107;-62
2022/02/07 09:01:15;;;;;;;1999.90;999.90;;;;;;;6.48;67.73;100396.81;15651792;28;20056;-63
2022/02/07 09:08:55;;;;;;;1999.90;999.90;;;;;;;6.58;67.28;100413.19;15625276;28;20398;-64
2022/02/07 09:16:33;;;;;;;1999.90;999.90;;;;;;;6.59;67.97;100433.41;15609341;28;20056;-63
2022/02/07 09:24:05;;;;;;;1999.90;999.90;;;;;;;6.97;66.66;100453.28;15626095;28;20095;-64
2022/02/07 09:31:39;;;;;;;1999.90;999.90;;;;;;;7.21;65.94;100461.28;15656834;28;20100;-64
2022/02/07 09:39:11;;;;;;;1999.90;999.90;;;;;;;7.63;64.19;100478.53;15649096;28;20132;-64
2022/02/07 09:46:48;;;;;;;1999.90;999.90;;;;;;;8.01;63.94;100493.53;15671669;28;20072;-64
2022/02/07 09:54:22;;;;;;;1999.90;999.90;;;;;;;7.86;63.81;100505.09;15698608;28;20045;-64
2022/02/07 10:01:59;;;;;;;1999.90;999.90;;;;;;;9.40;59.00;100519.59;15681973;28;20104;-63
2022/02/07 10:17:33;;;;;;;1999.90;999.90;;;;;;;11.02;54.78;100569.78;15641917;28;20121;-63
2022/02/07 10:48:44;;;;;;;1999.90;999.90;;;;;;;11.07;53.01;100642.19;15673966;28;20072;-63
2022/02/07 10:56:18;;;;;;;1999.90;999.90;;;;;;;10.73;53.04;100652.34;15672924;28;20049;-63
2022/02/07 11:03:54;;;;;;;1999.90;999.90;;;;;;;9.81;54.37;100663.09;15662633;28;20045;-63
2022/02/07 11:27:38;;;;;;;1999.90;999.90;;;;;;;11.32;50.13;100710.19;15657944;28;20064;-63
2022/02/07 11:35:13;;;;;;;1999.90;999.90;;;;;;;9.78;53.93;100736.19;15677007;28;20406;-62
2022/02/07 11:43:06;;;;;;;1999.90;999.90;;;;;;;10.45;52.71;100758.00;15628145;28;20135;-63
2022/02/07 11:50:43;;;;;;;1999.90;999.90;;;;;;;11.86;47.68;100761.47;15613624;28;20057;-62
2022/02/07 11:58:22;;;;;;;1999.90;999.90;;;;;;;10.07;53.31;100767.03;15676683;28;20494;-64
2022/02/07 12:05:58;;;;;;;1999.90;999.90;;;;;;;9.42;53.15;100773.53;15720223;28;20061;-63
2022/02/07 12:13:35;;;;;;;1999.90;999.90;;;;;;;10.26;50.89;100791.84;15707444;28;20090;-61
2022/02/07 12:21:18;;;;;;;1999.90;999.90;;;;;;;12.95;45.32;100797.47;15660354;28;20478;-61
2022/02/07 12:28:57;;;;;;;1999.90;999.90;;;;;;;12.24;44.17;100805.25;15673166;28;20106;-62
2022/02/07 12:36:34;;;;;;;1999.90;999.90;;;;;;;10.68;46.99;100825.59;15638740;28;20437;-62
2022/02/07 12:44:07;;;;;;;1999.90;999.90;;;;;;;9.60;47.66;100830.09;15652085;28;20041;-61
2022/02/07 12:51:43;;;;;;;1999.90;999.90;;;;;;;10.63;45.88;100848.91;15687321;28;20076;-62
2022/02/07 12:59:15;;;;;;;1999.90;999.90;;;;;;;11.04;43.83;100853.06;15688206;28;20096;-60
2022/02/07 13:06:53;;;;;;;1999.90;999.90;;;;;;;9.91;48.66;100873.78;15649555;28;20489;-62
2022/02/07 13:14:25;;;;;;;1999.90;999.90;;;;;;;9.33;47.63;100880.47;15627279;28;20044;-62
2022/02/07 13:22:00;;;;;;;1999.90;999.90;;;;;;;9.15;46.94;100907.38;15668660;28;20049;-60
2022/02/07 13:29:41;;;;;;;1999.90;999.90;;;;;;;10.37;44.68;100895.53;15667855;28;20045;-62
2022/02/07 13:37:17;;;;;;;1999.90;999.90;;;;;;;9.42;46.46;100923.09;15673637;28;20124;-62
2022/02/07 13:44:58;;;;;;;1999.90;999.90;;;;;;;9.59;46.09;100930.69;15654350;28;20036;-61
2022/02/07 13:52:35;;;;;;;1999.90;999.90;;;;;;;13.86;39.43;100969.19;15695740;28;20041;-57
2022/02/07 14:00:12;;;;;;;1999.90;999.90;;;;;;;15.76;35.63;100967.31;15687642;28;20048;-60
2022/02/07 14:07:54;;;;;;;1999.90;999.90;;;;;;;12.54;39.93;100980.34;15728400;28;20071;-64
2022/02/07 14:15:26;;;;;;;1999.90;999.90;;;;;;;9.11;48.01;101007.44;15667221;28;20405;-63
2022/02/07 14:22:59;;;;;;;1999.90;999.90;;;;;;;9.12;48.27;101027.75;15630066;28;20061;-62
2022/02/07 14:30:31;;;;;;;1999.90;999.90;;;;;;;8.71;49.49;101055.69;15645873;28;20052;-62
2022/02/07 14:38:06;;;;;;;1999.90;999.90;;;;;;;8.66;49.83;101067.78;15692679;28;20050;-64
2022/02/07 14:45:43;;;;;;;1999.90;999.90;;;;;;;8.55;49.94;101069.97;15645440;28;20099;-63
2022/02/07 14:53:17;;;;;;;1999.90;999.90;;;;;;;8.41;50.54;101091.38;15659609;28;20048;-62
2022/02/07 15:00:51;;;;;;;1999.90;999.90;;;;;;;8.61;50.26;101096.50;15601783;28;20072;-63
2022/02/07 15:08:28;;;;;;;1999.90;999.90;;;;;;;7.75;54.23;101126.78;15614241;28;20080;-63
2022/02/07 15:16:00;;;;;;;1999.90;999.90;;;;;;;7.32;55.88;101145.53;15643692;28;20041;-63
2022/02/07 15:23:36;;;;;;;1999.90;999.90;;;;;;;7.00;57.92;101156.56;15674483;28;20059;-62
2022/02/07 15:31:09;;;;;;;1999.90;999.90;;;;;;;7.12;58.16;101173.59;15621359;28;20056;-64
2022/02/07 15:38:44;;;;;;;1999.90;999.90;;;;;;;6.79;59.47;101198.44;15619470;28;20045;-64
2022/02/07 15:46:16;;;;;;;1999.90;999.90;;;;;;;6.81;59.25;101212.81;15646245;28;20045;-64
2022/02/07 15:53:51;;;;;;;1999.90;999.90;;;;;;;6.91;58.44;101223.81;15649506;28;20056;-62
2022/02/07 16:01:24;;;;;;;1999.90;999.90;;;;;;;6.77;58.26;101246.97;15639135;28;20084;-63
2022/02/07 16:08:57;;;;;;;1999.90;999.90;;;;;;;6.53;58.64;101277.47;15640059;28;20059;-63
2022/02/07 16:16:30;;;;;;;1999.90;999.90;;;;;;;6.79;57.25;101308.56;15648416;28;20057;-61
2022/02/07 16:24:03;;;;;;;1999.90;999.90;;;;;;;6.72;57.40;101324.72;15674992;28;20037;-63
2022/02/07 16:31:36;;;;;;;1999.90;999.90;;;;;;;6.69;57.08;101339.19;15640782;28;20061;-64
2022/02/07 16:39:09;;;;;;;1999.90;999.90;;;;;;;6.59;58.03;101346.47;15656378;28;20088;-63
2022/02/07 16:46:49;;;;;;;1999.90;999.90;;;;;;;6.84;57.74;101358.44;15658004;28;20128;-64
2022/02/07 16:54:23;;;;;;;1999.90;999.90;;;;;;;6.75;58.33;101374.88;15675109;28;20170;-62
2022/02/07 17:01:57;;;;;;;1999.90;999.90;;;;;;;6.90;58.75;101393.34;15616664;28;20041;-63
2022/02/07 17:09:32;;;;;;;1999.90;999.90;;;;;;;6.73;59.83;101410.41;15618765;28;20107;-63
2022/02/07 17:17:05;;;;;;;1999.90;999.90;;;;;;;6.71;59.96;101420.97;15654424;28;20049;-64
2022/02/07 17:24:38;;;;;;;1999.90;999.90;;;;;;;6.81;59.62;101437.53;15661921;28;20064;-63
2022/02/07 17:32:10;;;;;;;1999.90;999.90;;;;;;;6.84;59.83;101441.66;15644281;28;20111;-62
2022/02/07 17:39:44;;;;;;;1999.90;999.90;;;;;;;6.31;61.55;101445.09;15662380;28;20041;-63
2022/02/07 17:47:16;;;;;;;1999.90;999.90;;;;;;;6.29;61.38;101455.66;15617680;28;20041;-63
2022/02/07 17:54:50;;;;;;;1999.90;999.90;;;;;;;6.66;60.58;101476.47;15657703;28;20051;-62
2022/02/07 18:02:22;;;;;;;1999.90;999.90;;;;;;;6.52;61.21;101478.22;15701898;28;20050;-62
2022/02/07 18:09:59;;;;;;;1999.90;999.90;;;;;;;6.39;61.26;101474.16;15674200;28;20048;-61
2022/02/07 18:17:31;;;;;;;1999.90;999.90;;;;;;;6.43;60.69;101475.22;15665946;28;20057;-60
2022/02/07 18:25:06;;;;;;;1999.90;999.90;;;;;;;6.51;61.36;101499.59;15709947;28;20072;-60
2022/02/07 18:32:38;;;;;;;1999.90;999.90;;;;;;;6.29;61.68;101507.47;15726516;28;20045;-62
2022/02/07 18:40:15;;;;;;;1999.90;999.90;;;;;;;6.56;61.17;101521.72;15660149;28;20449;-59
2022/02/07 18:47:48;;;;;;;1999.90;999.90;;;;;;;6.30;61.91;101543.22;15637476;28;20048;-60
2022/02/07 18:55:23;;;;;;;1999.90;999.90;;;;;;;6.27;61.57;101557.66;15642372;28;20120;-60
2022/02/07 19:03:12;;;;;;;1999.90;999.90;;;;;;;5.67;63.36;101567.78;15650936;28;20045;-60
2022/02/07 19:10:48;;;;;;;1999.90;999.90;;;;;;;5.92;62.73;101571.63;15647077;28;20090;-64
2022/02/07 19:18:22;;;;;;;1999.90;999.90;;;;;;;5.60;63.81;101594.09;15629578;28;20107;-63
2022/02/07 19:26:00;;;;;;;1999.90;999.90;;;;;;;5.85;63.06;101607.09;15668906;28;20040;-64
2022/02/07 19:33:36;;;;;;;1999.90;999.90;;;;;;;5.75;63.64;101616.25;15627668;28;20056;-62
2022/02/07 19:41:22;;;;;;;1999.90;999.90;;;;;;;5.88;63.29;101637.00;15629866;28;20045;-61
2022/02/07 19:48:55;;;;;;;1999.90;999.90;;;;;;;5.43;64.94;101647.00;15650819;28;20064;-60
2022/02/07 19:56:28;;;;;;;1999.90;999.90;;;;;;;5.68;64.04;101662.75;15634140;28;20045;-58
2022/02/07 20:04:01;;;;;;;1999.90;999.90;;;;;;;5.49;65.46;101668.03;15611936;28;20079;-59
2022/02/07 20:11:39;;;;;;;1999.90;999.90;;;;;;;5.31;66.38;101679.63;15623945;28;20048;-59
2022/02/07 20:19:11;;;;;;;1999.90;999.90;;;;;;;5.20;66.82;101687.06;15638275;28;20041;-58
2022/02/07 20:26:45;;;;;;;1999.90;999.90;;;;;;;5.36;67.41;101683.25;15689841;28;20037;-63
2022/02/07 20:34:17;;;;;;;1999.90;999.90;;;;;;;5.38;67.91;101696.78;15644645;28;20342;-60
2022/02/07 20:41:51;;;;;;;1999.90;999.90;;;;;;;5.24;68.80;101706.75;15636597;28;20049;-60
2022/02/07 20:49:27;;;;;;;1999.90;999.90;;;;;;;5.46;68.24;101690.72;15610762;28;20045;-61
2022/02/07 20:57:01;;;;;;;1999.90;999.90;;;;;;;5.20;70.09;101717.50;15656728;28;20053;-59
2022/02/07 21:04:38;;;;;;;1999.90;999.90;;;;;;;4.89;70.59;101725.69;15607200;28;20144;-58
2022/02/07 21:12:15;;;;;;;1999.90;999.90;;;;;;;5.11;70.12;101724.69;15640690;28;20132;-59
2022/02/07 21:19:50;;;;;;;1999.90;999.90;;;;;;;5.35;69.69;101725.03;15661560;28;20041;-57
2022/02/07 21:27:24;;;;;;;1999.90;999.90;;;;;;;5.21;70.52;101725.56;15653421;28;20112;-58
2022/02/07 21:34:56;;;;;;;1999.90;999.90;;;;;;;5.35;71.09;101733.34;15684547;28;20047;-60
2022/02/07 21:42:34;;;;;;;1999.90;999.90;;;;;;;5.41;70.46;101730.28;15650907;28;20068;-59
2022/02/07 21:50:07;;;;;;;1999.90;999.90;;;;;;;5.23;71.38;101736.34;15645232;28;20120;-59
2022/02/07 21:57:40;;;;;;;1999.90;999.90;;;;;;;5.28;72.01;101755.72;15640134;28;20142;-58
2022/02/07 22:05:13;;;;;;;1999.90;999.90;;;;;;;5.10;72.04;101761.75;15681256;28;20098;-60
2022/02/07 22:12:58;;;;;;;1999.90;999.90;;;;;;;5.36;70.93;101773.75;15665848;28;20050;-60
2022/02/07 22:20:31;;;;;;;1999.90;999.90;;;;;;;5.48;71.09;101782.63;15638543;28;20091;-57
2022/02/07 22:28:05;;;;;;;1999.90;999.90;;;;;;;5.40;70.91;101795.06;15654452;28;20490;-60
2022/02/07 22:35:37;;;;;;;1999.90;999.90;;;;;;;5.28;72.20;101799.19;15682953;28;20076;-57
2022/02/07 22:43:10;;;;;;;1999.90;999.90;;;;;;;5.44;72.03;101803.69;15642194;28;20114;-58
2022/02/07 22:50:42;;;;;;;1999.90;999.90;;;;;;;5.68;71.32;101804.84;15629439;28;20045;-59
2022/02/07 22:58:16;;;;;;;1999.90;999.90;;;;;;;5.70;70.95;101822.00;15641292;28;20060;-61
2022/02/07 23:05:52;;;;;;;1999.90;999.90;;;;;;;5.58;71.74;101826.97;15628574;28;20045;-59
2022/02/07 23:13:33;;;;;;;1999.90;999.90;;;;;;;5.74;71.10;101823.13;15673076;28;20049;-59
2022/02/07 23:36:56;;;;;;;1999.90;999.90;;;;;;;5.71;71.49;101856.91;15638057;28;20571;-60
2022/02/07 23:44:29;;;;;;;1999.90;999.90;;;;;;;5.67;71.32;101861.34;15676878;28;20112;-61
2022/02/07 23:52:10;;;;;;;1999.90;999.90;;;;;;;5.74;71.68;101861.09;15613558;28;20041;-60
2022/02/07 23:59:47;;;;;;;1999.90;999.90;;;;;;;5.69;71.81;101877.66;15653446;28;20048;-60
